Lake Mattawa, Massachusetts
Current Conditions -  °F | °C
As of 4:52 AM on Thursday 29 Jan 2015 (Local Time) from KORE Reporting Station
Clear Clear  
Wind Chill: -7°   Ceiling: Unl
Heat Index: -7°   Visibility: 9mi
Dew Point: -10°   Wind: 0mph
Humidity: 87%   Direction: NA
Pressure: 30.28"   Gusts: NA
Location:  42.614°N, 72.3011°W
Report Text: KORE 290952Z AUTO 00000KT 9SM CLR M22/M23 A3028 RMK AO2 SLP267 I1000 T12171233
Loading
Personal Weather Stations






























Interactive Weather Map New forecast layout! Learn more

10-Day Weather Forecast

Advertisements
Track Severe Weather on mobile